Time;durP1;ratioP1;P1;durP2;ratioP2;P2;SDS_P1;SDS_P2;PMS_P1;PMS_P2;Temp;Humidity;BMP_temperature;BMP_pressure;BME280_temperature;BME280_humidity;BME280_pressure;Samples;Min_cycle;Max_cycle;Signal;HPM_P1;HPM_P2
2021/09/17 00:02:04;;;;;;;14.30;9.58;;;;;;;16.68;48.45;99342.00;1773865;80;20993;-40
2021/09/17 00:04:30;;;;;;;13.00;8.70;;;;;;;16.70;48.24;99345.72;1756109;80;21030;-40
2021/09/17 00:06:57;;;;;;;13.65;9.18;;;;;;;16.70;48.27;99346.47;1771737;80;20999;-40
2021/09/17 00:09:24;;;;;;;15.10;8.98;;;;;;;16.71;48.55;99345.89;1771674;80;20993;-40
2021/09/17 00:11:51;;;;;;;15.55;10.00;;;;;;;16.70;48.40;99337.50;1777072;80;21065;-40
2021/09/17 00:14:19;;;;;;;17.37;9.95;;;;;;;16.70;47.93;99338.26;1777854;80;20977;-40
2021/09/17 00:16:46;;;;;;;15.32;8.80;;;;;;;16.68;47.82;99339.27;1769065;80;21021;-40
2021/09/17 00:19:15;;;;;;;13.80;9.00;;;;;;;16.68;47.53;99331.64;1740794;80;21519;-40
2021/09/17 00:21:42;;;;;;;18.65;9.10;;;;;;;16.65;47.93;99334.60;1760650;80;21547;-40
2021/09/17 00:24:10;;;;;;;15.53;9.60;;;;;;;16.63;47.55;99320.53;1766945;80;20951;-40
2021/09/17 00:26:37;;;;;;;15.63;9.13;;;;;;;16.62;47.32;99320.33;1770113;80;20997;-40
2021/09/17 00:29:04;;;;;;;14.10;8.90;;;;;;;16.60;46.87;99320.55;1771917;79;21496;-40
2021/09/17 00:31:30;;;;;;;20.27;9.78;;;;;;;16.54;47.16;99311.95;1755431;80;21524;-40
2021/09/17 00:33:57;;;;;;;14.95;9.50;;;;;;;16.52;47.07;99312.93;1739316;80;21073;-40
2021/09/17 00:36:23;;;;;;;14.18;9.10;;;;;;;16.51;47.04;99310.00;1766744;81;21814;-40
2021/09/17 00:38:50;;;;;;;22.32;9.68;;;;;;;16.48;47.06;99305.34;1710285;82;21065;-40
2021/09/17 00:41:18;;;;;;;14.83;9.50;;;;;;;16.48;47.24;99302.59;1766840;81;20982;-40
2021/09/17 00:43:46;;;;;;;14.68;9.15;;;;;;;16.51;47.02;99304.52;1776555;80;20938;-40
2021/09/17 00:46:13;;;;;;;15.00;9.15;;;;;;;16.53;47.16;99302.18;1766442;81;21060;-40
2021/09/17 00:48:39;;;;;;;14.78;8.10;;;;;;;16.55;46.92;99299.83;1768539;80;21167;-40
2021/09/17 00:51:05;;;;;;;13.25;9.03;;;;;;;16.57;46.73;99302.93;1781976;80;20964;-40
2021/09/17 00:53:34;;;;;;;14.80;9.40;;;;;;;16.57;46.58;99302.93;1779627;79;21591;-40
2021/09/17 00:56:03;;;;;;;14.35;8.73;;;;;;;16.57;46.67;99300.20;1766955;81;21077;-40
2021/09/17 00:58:30;;;;;;;15.18;9.08;;;;;;;16.57;46.92;99304.30;1762956;80;21053;-40
2021/09/17 01:00:57;;;;;;;17.25;8.90;;;;;;;16.58;46.99;99290.84;1752894;80;21795;-40
2021/09/17 01:03:24;;;;;;;13.62;8.10;;;;;;;16.61;46.64;99287.88;1765468;80;20922;-40
2021/09/17 01:05:51;;;;;;;13.22;8.45;;;;;;;16.61;46.96;99279.08;1771590;80;21508;-40
2021/09/17 01:08:17;;;;;;;13.28;8.13;;;;;;;16.62;46.70;99278.49;1784630;80;21061;-40
2021/09/17 01:10:44;;;;;;;14.03;8.40;;;;;;;16.61;46.78;99271.45;1785056;79;21796;-40
2021/09/17 01:13:10;;;;;;;13.70;8.00;;;;;;;16.59;46.69;99277.34;1757915;80;21114;-40
2021/09/17 01:15:39;;;;;;;12.68;8.10;;;;;;;16.57;46.73;99274.19;1773664;80;21492;-40
2021/09/17 01:18:05;;;;;;;13.45;7.85;;;;;;;16.56;46.45;99274.00;1773769;80;20930;-40
2021/09/17 01:20:32;;;;;;;13.58;7.35;;;;;;;16.56;46.80;99261.69;1757238;80;21080;-40
2021/09/17 01:23:00;;;;;;;12.82;7.65;;;;;;;16.57;46.96;99264.61;1773605;80;21491;-40
2021/09/17 01:25:27;;;;;;;14.05;8.05;;;;;;;16.58;46.85;99259.36;1773598;80;21106;-40
2021/09/17 01:27:55;;;;;;;13.65;7.75;;;;;;;16.59;46.80;99260.15;1772738;80;20934;-40
2021/09/17 01:30:22;;;;;;;12.28;6.97;;;;;;;16.57;46.41;99259.73;1767680;80;21508;-40
2021/09/17 01:32:49;;;;;;;12.93;6.97;;;;;;;16.54;46.59;99259.95;1770170;80;21080;-40
2021/09/17 01:35:17;;;;;;;13.32;7.22;;;;;;;16.55;46.55;99260.16;1743171;82;21049;-40
2021/09/17 01:37:46;;;;;;;10.95;6.70;;;;;;;16.55;47.00;99258.78;1760325;80;21101;-40
2021/09/17 01:40:13;;;;;;;11.43;7.10;;;;;;;16.57;46.94;99251.52;1773818;80;21033;-40
2021/09/17 01:42:40;;;;;;;9.35;6.50;;;;;;;16.60;46.52;99248.02;1773474;80;20949;-40
2021/09/17 01:45:08;;;;;;;9.93;6.22;;;;;;;16.60;46.49;99246.06;1774167;80;21022;-40
2021/09/17 01:47:35;;;;;;;10.18;6.47;;;;;;;16.60;46.38;99241.97;1758547;80;21468;-40
2021/09/17 01:50:03;;;;;;;9.53;6.47;;;;;;;16.61;46.50;99238.61;1752708;80;21142;-40
2021/09/17 01:52:30;;;;;;;11.57;6.50;;;;;;;16.61;46.42;99238.02;1773511;80;20994;-40
2021/09/17 01:54:58;;;;;;;9.58;6.05;;;;;;;16.62;46.50;99238.22;1753962;80;21485;-40
2021/09/17 01:57:25;;;;;;;14.47;6.75;;;;;;;16.64;46.38;99230.39;1758091;80;21042;-40
2021/09/17 01:59:51;;;;;;;12.80;6.50;;;;;;;16.65;46.64;99225.70;1716878;83;21050;-40
2021/09/17 02:02:18;;;;;;;12.30;6.67;;;;;;;16.66;46.77;99223.91;1753092;80;21056;-40
2021/09/17 02:04:44;;;;;;;15.45;6.42;;;;;;;16.67;46.44;99210.42;1763710;80;21067;-40
2021/09/17 02:07:12;;;;;;;13.53;6.53;;;;;;;16.68;46.27;99211.98;1743206;82;21005;-40
2021/09/17 02:09:39;;;;;;;10.88;6.33;;;;;;;16.68;46.59;99207.09;1753138;80;21035;-40
2021/09/17 02:12:07;;;;;;;11.18;6.50;;;;;;;16.68;46.59;99207.87;1768934;80;21064;-40
2021/09/17 02:14:35;;;;;;;9.20;6.30;;;;;;;16.68;46.46;99199.66;1778641;80;21120;-40
2021/09/17 02:17:02;;;;;;;8.43;5.55;;;;;;;16.69;46.72;99201.22;1764454;80;20925;-40
2021/09/17 02:19:29;;;;;;;13.30;6.75;;;;;;;16.72;46.29;99200.99;1783074;80;20930;-40
2021/09/17 02:21:57;;;;;;;12.93;5.80;;;;;;;16.74;46.54;99194.53;1782167;80;21476;-40
2021/09/17 02:24:24;;;;;;;9.75;5.90;;;;;;;16.74;46.09;99191.20;1781309;80;21030;-40
2021/09/17 02:26:51;;;;;;;11.12;5.58;;;;;;;16.72;46.17;99186.72;1763251;80;21965;-40
2021/09/17 02:29:19;;;;;;;11.57;5.83;;;;;;;16.73;46.29;99186.91;1773112;80;21519;-40
2021/09/17 02:31:46;;;;;;;11.95;5.70;;;;;;;16.75;46.51;99183.78;1782286;80;21081;-40
2021/09/17 02:34:12;;;;;;;8.90;5.42;;;;;;;16.79;46.78;99188.62;1778929;80;21016;-40
2021/09/17 02:36:39;;;;;;;15.65;6.20;;;;;;;16.81;46.72;99188.98;1781782;80;21061;-40
2021/09/17 02:39:06;;;;;;;10.50;5.25;;;;;;;16.83;46.59;99191.52;1755970;80;21942;-40
2021/09/17 02:41:32;;;;;;;8.98;5.30;;;;;;;16.82;45.84;99185.84;1763949;81;21059;-40
2021/09/17 02:43:59;;;;;;;8.28;5.05;;;;;;;16.81;46.34;99182.91;1768496;80;20997;-40
2021/09/17 02:46:26;;;;;;;8.30;4.70;;;;;;;16.80;46.28;99171.77;1778225;80;21098;-40
2021/09/17 02:48:52;;;;;;;8.80;5.03;;;;;;;16.83;46.04;99174.30;1782129;80;21542;-40
2021/09/17 02:51:20;;;;;;;12.35;5.33;;;;;;;16.81;46.23;99162.37;1782218;80;21196;-40
2021/09/17 02:53:46;;;;;;;9.28;4.33;;;;;;;16.84;46.22;99158.85;1781933;80;21012;-40
2021/09/17 02:56:15;;;;;;;8.48;5.10;;;;;;;16.86;45.78;99158.42;1782165;80;20964;-40
2021/09/17 02:58:42;;;;;;;10.05;5.33;;;;;;;16.86;45.89;99161.16;1775833;80;21017;-40
2021/09/17 03:01:08;;;;;;;7.75;5.05;;;;;;;16.87;46.21;99146.30;1782226;80;21519;-40
2021/09/17 03:03:35;;;;;;;9.00;4.75;;;;;;;16.89;46.04;99146.06;1759459;80;21130;-40
2021/09/17 03:06:02;;;;;;;8.03;5.10;;;;;;;16.89;46.44;99139.22;1760342;80;21587;-40
2021/09/17 03:08:31;;;;;;;8.03;4.70;;;;;;;16.94;46.32;99142.13;1769324;80;20965;-40
2021/09/17 03:10:58;;;;;;;8.68;4.65;;;;;;;16.96;46.38;99134.27;1782336;80;21017;-40
2021/09/17 03:13:26;;;;;;;8.93;4.25;;;;;;;16.97;45.94;99135.05;1716936;82;21576;-40
2021/09/17 03:15:53;;;;;;;9.58;4.53;;;;;;;16.98;45.73;99125.66;1748369;80;21105;-40
2021/09/17 03:18:21;;;;;;;8.63;5.12;;;;;;;17.00;45.75;99132.85;1712842;82;20994;-40
2021/09/17 03:20:50;;;;;;;9.05;5.00;;;;;;;17.00;45.86;99125.41;1687339;85;20993;-40
2021/09/17 03:23:19;;;;;;;13.68;4.55;;;;;;;17.00;45.87;99127.38;1683456;83;21324;-40
2021/09/17 03:25:47;;;;;;;8.25;4.60;;;;;;;16.98;45.70;99122.91;1688616;83;21642;-40
2021/09/17 03:28:15;;;;;;;7.95;4.25;;;;;;;16.97;45.58;99130.35;1748478;80;21157;-40
2021/09/17 03:30:42;;;;;;;6.08;4.10;;;;;;;16.93;45.57;99122.19;1748376;80;20961;-40
2021/09/17 03:33:14;;;;;;;8.23;4.60;;;;;;;16.94;45.71;99117.48;1761963;80;21075;-40
2021/09/17 03:35:38;;;;;;;7.05;3.95;;;;;;;16.95;45.80;99121.75;1765148;80;21004;-40
2021/09/17 03:38:06;;;;;;;10.00;4.45;;;;;;;16.96;45.82;99124.68;1748157;80;21104;-40
2021/09/17 03:40:35;;;;;;;6.72;4.33;;;;;;;16.98;45.61;99122.91;1743455;82;21120;-40
2021/09/17 03:43:03;;;;;;;10.28;4.87;;;;;;;16.99;45.49;99121.73;1717745;82;21475;-40
2021/09/17 03:45:31;;;;;;;7.75;4.33;;;;;;;16.99;45.41;99116.26;1743796;82;21590;-40
2021/09/17 03:48:04;;;;;;;9.13;4.30;;;;;;;16.99;45.46;99114.30;1747939;82;20971;-40
2021/09/17 03:50:31;;;;;;;6.08;4.35;;;;;;;16.99;45.61;99109.41;1702570;82;21497;-40
2021/09/17 03:52:58;;;;;;;9.03;4.47;;;;;;;17.01;45.96;99109.77;1748532;82;21374;-40
2021/09/17 03:55:26;;;;;;;5.62;4.08;;;;;;;17.02;45.74;99107.22;1747139;82;21701;-40
2021/09/17 03:57:53;;;;;;;9.10;4.67;;;;;;;17.01;45.82;99099.59;1742409;80;21051;-40
2021/09/17 04:00:20;;;;;;;9.13;4.72;;;;;;;17.01;45.83;99107.80;1731122;82;21015;-40
2021/09/17 04:02:47;;;;;;;6.33;3.90;;;;;;;17.00;45.74;99102.73;1748366;82;21615;-40
2021/09/17 04:05:13;;;;;;;6.67;4.70;;;;;;;16.98;45.72;99101.78;1748518;82;21125;-40
2021/09/17 04:07:41;;;;;;;7.55;4.05;;;;;;;16.99;46.07;99103.94;1748428;82;20931;-40
2021/09/17 04:10:10;;;;;;;8.08;3.83;;;;;;;16.99;46.27;99094.35;1748454;80;20968;-40
2021/09/17 04:12:37;;;;;;;8.30;4.47;;;;;;;16.99;46.65;99095.72;1751299;81;21294;-40
2021/09/17 04:15:07;;;;;;;7.35;4.05;;;;;;;17.00;46.52;99092.55;1766584;80;21042;-40
2021/09/17 04:17:33;;;;;;;8.28;4.28;;;;;;;16.98;46.65;99086.72;1748365;82;21159;-40
2021/09/17 04:20:01;;;;;;;6.22;4.00;;;;;;;17.02;46.66;99086.67;1748514;80;20986;-40
2021/09/17 04:22:28;;;;;;;8.98;4.15;;;;;;;17.03;46.91;99091.75;1778454;80;21008;-40
2021/09/17 04:24:56;;;;;;;8.45;4.87;;;;;;;17.06;46.91;99081.93;1775341;79;21050;-40
2021/09/17 04:27:25;;;;;;;8.98;4.62;;;;;;;17.04;46.84;99081.58;1771116;79;21044;-39
2021/09/17 04:29:51;;;;;;;8.85;4.83;;;;;;;17.02;47.07;99076.50;1767567;79;21507;-40
2021/09/17 04:32:18;;;;;;;7.28;4.40;;;;;;;17.03;46.92;99078.06;1769693;79;21013;-40
2021/09/17 04:34:44;;;;;;;12.13;6.53;;;;;;;17.04;47.14;99077.47;1769612;79;21834;-40
2021/09/17 04:37:11;;;;;;;8.38;4.55;;;;;;;17.07;47.31;99068.42;1771835;79;21452;-40
2021/09/17 04:39:38;;;;;;;8.63;4.53;;;;;;;17.07;46.98;99065.69;1770873;79;21069;-40
2021/09/17 04:42:05;;;;;;;10.82;5.15;;;;;;;17.08;47.54;99071.35;1769120;79;21115;-40
2021/09/17 04:44:32;;;;;;;10.85;5.53;;;;;;;17.10;47.77;99069.74;1763526;79;21013;-40
2021/09/17 04:46:58;;;;;;;13.00;7.12;;;;;;;17.15;47.80;99063.03;1759106;79;21638;-40
2021/09/17 04:49:25;;;;;;;19.15;8.18;;;;;;;17.19;47.95;99059.66;1752913;79;21445;-40
2021/09/17 04:51:52;;;;;;;13.18;8.15;;;;;;;17.23;47.94;99063.15;1769955;79;21008;-40
2021/09/17 04:54:20;;;;;;;13.98;8.58;;;;;;;17.26;48.35;99065.05;1772476;79;20976;-40
2021/09/17 04:56:46;;;;;;;12.00;7.55;;;;;;;17.27;48.45;99062.50;1772439;79;21074;-40
2021/09/17 04:59:13;;;;;;;10.72;6.17;;;;;;;17.30;48.35;99056.19;1770837;79;20992;-40
2021/09/17 05:01:40;;;;;;;11.28;5.40;;;;;;;17.31;48.58;99048.94;1770012;79;21020;-40
2021/09/17 05:04:07;;;;;;;8.45;4.95;;;;;;;17.32;48.48;99047.75;1779237;80;21590;-40
2021/09/17 05:06:34;;;;;;;7.95;5.10;;;;;;;17.36;48.62;99043.59;1779011;79;21136;-40
2021/09/17 05:09:01;;;;;;;10.63;4.67;;;;;;;17.37;48.75;99047.89;1774315;80;21049;-40
2021/09/17 05:11:29;;;;;;;7.65;4.33;;;;;;;17.40;48.57;99044.31;1776890;79;21111;-40
2021/09/17 05:13:56;;;;;;;9.70;4.72;;;;;;;17.10;48.73;99003.23;1760850;78;21534;-40
2021/09/17 05:16:24;;;;;;;10.08;4.53;;;;;;;17.40;48.85;99038.83;1781700;78;21522;-40
2021/09/17 05:18:51;;;;;;;10.25;4.40;;;;;;;17.41;49.17;99036.88;1787696;80;21140;-40
2021/09/17 05:21:20;;;;;;;9.10;4.70;;;;;;;17.42;49.26;99037.84;1771579;80;20960;-40
2021/09/17 05:23:47;;;;;;;6.92;4.50;;;;;;;17.44;49.51;99029.97;1782865;78;21003;-40
2021/09/17 05:26:14;;;;;;;7.85;4.78;;;;;;;17.44;49.91;99026.45;1770409;80;21087;-40
2021/09/17 05:28:43;;;;;;;8.33;4.12;;;;;;;17.46;50.21;99028.97;1770002;80;20996;-40
2021/09/17 05:31:10;;;;;;;15.75;5.17;;;;;;;17.48;50.25;99027.95;1786705;80;21132;-40
2021/09/17 05:33:37;;;;;;;10.20;4.35;;;;;;;17.48;50.64;99027.95;1781867;80;20909;-40
2021/09/17 05:36:04;;;;;;;8.60;4.25;;;;;;;17.49;50.64;99025.98;1783093;79;21084;-40
2021/09/17 05:38:31;;;;;;;7.28;4.55;;;;;;;17.50;50.75;99028.32;1773308;78;20984;-40
2021/09/17 05:40:57;;;;;;;7.87;4.10;;;;;;;17.52;51.08;99028.70;1786569;80;21032;-40
2021/09/17 05:43:24;;;;;;;10.43;5.12;;;;;;;17.54;51.18;99026.89;1779126;78;21104;-40
2021/09/17 05:45:50;;;;;;;9.55;5.45;;;;;;;17.57;51.57;99025.45;1779728;78;21489;-40
2021/09/17 05:48:18;;;;;;;9.53;4.55;;;;;;;17.61;51.76;99018.02;1780970;78;21510;-40
2021/09/17 05:50:46;;;;;;;7.97;4.58;;;;;;;17.67;51.68;99014.21;1786729;78;21550;-40
2021/09/17 05:53:15;;;;;;;9.50;4.80;;;;;;;17.72;51.51;99013.71;1785460;78;21006;-40
2021/09/17 05:55:42;;;;;;;10.40;4.97;;;;;;;17.77;51.76;99015.98;1787879;80;21153;-40
2021/09/17 05:58:10;;;;;;;8.40;4.65;;;;;;;17.79;51.67;99018.50;1785036;78;21581;-40
2021/09/17 06:00:37;;;;;;;7.85;4.50;;;;;;;17.78;51.53;99011.47;1783425;78;21111;-40
2021/09/17 06:03:04;;;;;;;8.75;4.83;;;;;;;17.79;51.87;99009.50;1787488;80;21006;-39
2021/09/17 06:05:31;;;;;;;11.28;4.50;;;;;;;17.77;51.87;99007.17;1786686;78;21064;-39
2021/09/17 06:07:58;;;;;;;12.05;4.70;;;;;;;17.74;52.10;99012.13;1751138;81;21152;-42
2021/09/17 06:10:26;;;;;;;10.45;5.00;;;;;;;17.74;52.39;99013.50;1782641;80;20961;-39
2021/09/17 06:12:53;;;;;;;10.63;5.22;;;;;;;17.77;52.46;99003.05;1756757;80;21078;-40
2021/09/17 06:15:19;;;;;;;11.05;4.95;;;;;;;17.78;52.69;99007.95;1746163;80;22111;-39
2021/09/17 06:17:48;;;;;;;9.83;5.40;;;;;;;17.77;52.85;99000.31;1751028;82;21014;-39
2021/09/17 06:20:14;;;;;;;8.75;5.15;;;;;;;17.75;52.72;98998.59;1751195;82;21109;-39
2021/09/17 06:22:45;;;;;;;8.15;5.25;;;;;;;17.73;52.71;99000.97;1760789;79;20913;-39
2021/09/17 06:27:45;;;;;;;13.35;5.17;;;;;;;17.69;53.21;98994.77;1762334;79;22586;-39
2021/09/17 06:30:13;;;;;;;9.98;5.58;;;;;;;17.60;53.38;98991.78;1731096;82;21389;-39
2021/09/17 06:32:40;;;;;;;13.68;5.15;;;;;;;17.63;53.49;98986.05;1730904;82;21160;-39
2021/09/17 06:35:09;;;;;;;11.30;5.50;;;;;;;17.66;53.37;98987.39;1732509;82;20983;-39
2021/09/17 06:37:46;;;;;;;14.45;6.33;;;;;;;17.66;53.59;98987.98;1725838;82;20916;-39
2021/09/17 06:40:13;;;;;;;13.08;5.50;;;;;;;17.65;53.96;98983.09;1731504;82;21013;-39
2021/09/17 06:42:40;;;;;;;9.13;5.58;;;;;;;17.66;53.81;98984.65;1730566;81;21096;-39
2021/09/17 06:45:08;;;;;;;11.10;5.95;;;;;;;17.70;54.37;98977.14;1733908;82;21131;-39
2021/09/17 06:47:48;;;;;;;11.57;6.45;;;;;;;17.74;54.44;98980.59;1733386;82;21555;-39
2021/09/17 06:50:17;;;;;;;9.35;6.83;;;;;;;17.83;54.16;98969.67;1734075;81;21700;-39
2021/09/17 06:52:48;;;;;;;11.73;6.87;;;;;;;17.86;53.75;98968.86;1742608;82;21547;-39
2021/09/17 06:55:16;;;;;;;15.88;7.83;;;;;;;17.87;53.94;98970.39;1748698;82;21049;-39
2021/09/17 06:57:52;;;;;;;14.58;7.47;;;;;;;17.87;54.08;98969.02;1748181;82;21958;-39
2021/09/17 07:00:20;;;;;;;16.48;7.60;;;;;;;17.88;54.46;98967.83;1746980;82;21011;-39
2021/09/17 07:02:47;;;;;;;15.68;7.87;;;;;;;17.88;54.50;98967.83;1741902;82;20941;-40
2021/09/17 07:05:15;;;;;;;12.20;7.15;;;;;;;17.83;54.53;98961.45;1746870;81;20992;-40
2021/09/17 07:07:42;;;;;;;14.05;6.70;;;;;;;17.89;54.69;98966.64;1730855;82;21096;-40
2021/09/17 07:10:10;;;;;;;11.38;6.75;;;;;;;17.90;55.08;98966.23;1725612;82;21824;-40
2021/09/17 07:12:37;;;;;;;13.30;6.55;;;;;;;17.91;54.96;98962.28;1736792;82;21337;-40
2021/09/17 07:15:06;;;;;;;11.53;6.60;;;;;;;17.95;55.43;98962.23;1748514;82;20984;-40
2021/09/17 07:17:33;;;;;;;10.88;6.28;;;;;;;17.98;55.16;98959.42;1739707;82;22126;-40
2021/09/17 07:20:00;;;;;;;16.77;7.03;;;;;;;17.99;55.31;98960.20;1733922;82;21044;-40
2021/09/17 07:22:27;;;;;;;11.18;6.87;;;;;;;17.98;55.52;98953.94;1734769;82;21128;-40
2021/09/17 07:24:54;;;;;;;14.18;6.30;;;;;;;18.01;55.83;98959.20;1733666;82;20980;-40
2021/09/17 07:27:21;;;;;;;11.48;6.25;;;;;;;18.05;55.67;98966.77;1736371;82;21000;-40
2021/09/17 07:29:47;;;;;;;12.95;6.65;;;;;;;18.06;55.84;98959.47;1733317;82;21105;-40
2021/09/17 07:32:14;;;;;;;11.80;7.30;;;;;;;18.09;56.12;98957.87;1734993;82;21076;-41
2021/09/17 07:34:40;;;;;;;13.08;7.12;;;;;;;18.10;56.26;98960.20;1745445;82;21917;-41
2021/09/17 07:37:07;;;;;;;12.58;7.30;;;;;;;18.10;56.32;98960.20;1749451;82;21018;-41
2021/09/17 07:39:34;;;;;;;12.73;7.53;;;;;;;17.84;56.60;98913.05;1733119;82;21023;-41
2021/09/17 07:42:01;;;;;;;16.37;7.62;;;;;;;18.17;56.66;98960.66;1741097;82;21033;-41
2021/09/17 07:44:27;;;;;;;15.40;8.35;;;;;;;18.22;56.82;98958.80;1748890;82;21269;-40
2021/09/17 07:46:54;;;;;;;13.00;8.00;;;;;;;18.27;56.74;98957.54;1736348;82;21114;-40
2021/09/17 07:49:21;;;;;;;15.78;8.80;;;;;;;18.28;56.94;98957.13;1748781;82;20985;-41
2021/09/17 07:51:47;;;;;;;17.65;8.65;;;;;;;18.30;57.08;98955.34;1744977;82;21024;-40
2021/09/17 07:54:14;;;;;;;14.03;8.93;;;;;;;18.34;57.24;98951.93;1740878;82;21052;-41
2021/09/17 07:56:41;;;;;;;16.35;8.95;;;;;;;18.39;57.18;98950.84;1742730;82;21697;-40
2021/09/17 07:59:08;;;;;;;17.05;9.15;;;;;;;18.41;57.51;98944.92;1746878;82;21859;-41
2021/09/17 08:01:34;;;;;;;17.07;8.55;;;;;;;18.42;57.58;98945.88;1740138;82;21062;-41
2021/09/17 08:04:00;;;;;;;18.75;9.13;;;;;;;18.48;57.67;98934.59;1735730;82;21037;-41
2021/09/17 08:06:27;;;;;;;15.68;8.35;;;;;;;18.51;57.66;98929.62;1734915;82;21045;-41
2021/09/17 08:08:53;;;;;;;14.90;8.55;;;;;;;18.55;57.83;98930.94;1733081;82;21555;-40
2021/09/17 08:11:20;;;;;;;15.03;7.95;;;;;;;18.58;57.73;98927.37;1725211;82;21568;-40
2021/09/17 08:13:47;;;;;;;13.65;7.87;;;;;;;18.61;57.78;98931.41;1728125;82;21272;-41
2021/09/17 08:16:15;;;;;;;20.37;9.03;;;;;;;18.64;57.93;98926.43;1738992;82;21001;-41
2021/09/17 08:18:45;;;;;;;19.12;9.20;;;;;;;18.69;57.89;98932.02;1737685;82;21064;-40
2021/09/17 08:21:13;;;;;;;15.35;8.78;;;;;;;18.72;57.91;98920.80;1724971;82;21025;-41
2021/09/17 08:23:39;;;;;;;14.07;7.97;;;;;;;18.74;58.13;98932.89;1737935;82;21981;-41
2021/09/17 08:26:07;;;;;;;14.93;9.25;;;;;;;18.74;58.23;98930.75;1719814;82;21077;-42
2021/09/17 08:28:33;;;;;;;17.42;8.90;;;;;;;18.72;58.34;98927.66;1742228;82;21047;-41
2021/09/17 08:31:02;;;;;;;16.48;8.80;;;;;;;18.74;58.55;98912.89;1735419;82;21575;-41
2021/09/17 08:33:31;;;;;;;15.65;7.87;;;;;;;18.75;58.35;98908.95;1720566;82;21530;-41
2021/09/17 08:35:59;;;;;;;15.20;8.35;;;;;;;18.75;58.42;98907.59;1723326;82;21046;-41
2021/09/17 08:38:25;;;;;;;13.98;8.23;;;;;;;18.77;58.60;98911.47;1719436;83;20925;-41
2021/09/17 08:40:57;;;;;;;17.55;7.80;;;;;;;18.86;58.72;98904.02;1720032;82;21471;-41
2021/09/17 08:43:25;;;;;;;17.98;8.75;;;;;;;18.93;58.61;98905.22;1727238;82;21025;-41
2021/09/17 08:45:52;;;;;;;14.40;8.13;;;;;;;19.00;58.34;98904.48;1740160;82;21049;-41
2021/09/17 08:48:29;;;;;;;15.15;8.30;;;;;;;19.01;58.39;98898.38;1725242;82;21129;-41
2021/09/17 08:50:57;;;;;;;18.05;9.03;;;;;;;19.01;58.32;98890.92;1722423;82;21062;-41
2021/09/17 08:53:26;;;;;;;23.20;9.53;;;;;;;19.02;58.63;98886.20;1720088;82;20897;-41
2021/09/17 08:55:52;;;;;;;12.18;7.90;;;;;;;19.05;58.86;98886.11;1719693;83;21539;-41
2021/09/17 08:58:19;;;;;;;20.37;8.45;;;;;;;19.08;58.51;98882.50;1719566;82;21017;-41
2021/09/17 09:00:46;;;;;;;15.40;8.30;;;;;;;19.08;58.44;98874.86;1719316;83;21124;-41
2021/09/17 09:03:31;;;;;;;18.75;8.93;;;;;;;19.08;58.55;98873.48;1742907;82;20926;-41
2021/09/17 09:06:13;;;;;;;20.50;8.98;;;;;;;19.08;58.67;98872.11;1742399;82;21547;-41
2021/09/17 09:08:44;;;;;;;17.77;9.28;;;;;;;19.04;58.77;98865.92;1720472;82;20965;-41
2021/09/17 09:11:19;;;;;;;14.90;8.33;;;;;;;19.05;58.89;98863.36;1748004;82;21005;-41
2021/09/17 09:14:10;;;;;;;22.75;10.03;;;;;;;19.07;59.08;98853.47;1721925;82;21151;-41
2021/09/17 09:16:39;;;;;;;;;;;;;;;19.09;59.16;98852.45;1734448;82;21455;-41
2021/09/17 09:19:27;;;;;;;18.67;8.15;;;;;;;19.15;59.16;98849.20;1749406;81;20096;-41
2021/09/17 09:22:09;;;;;;;17.62;7.83;;;;;;;19.18;59.15;98851.08;1743739;82;20968;-41
2021/09/17 09:24:40;;;;;;;20.52;11.83;;;;;;;19.25;59.24;98853.06;1749290;82;21531;-41
2021/09/17 09:27:17;;;;;;;24.12;9.75;;;;;;;19.33;59.09;98851.69;1727994;82;21096;-41
2021/09/17 09:29:51;;;;;;;16.97;8.28;;;;;;;19.43;59.10;98855.37;1721436;82;21012;-41
2021/09/17 09:32:32;;;;;;;17.50;8.85;;;;;;;19.52;59.16;98856.34;1719837;83;21717;-41
2021/09/17 09:35:01;;;;;;;15.00;7.92;;;;;;;19.64;59.10;98860.38;1721894;82;21954;-41
2021/09/17 09:37:31;;;;;;;12.33;8.45;;;;;;;19.72;58.77;98858.97;1731823;82;21077;-41
2021/09/17 09:40:14;;;;;;;15.03;8.25;;;;;;;19.81;58.65;98863.84;1748529;82;21084;-41
2021/09/17 09:42:46;;;;;;;13.32;8.28;;;;;;;19.88;58.72;98854.82;1736108;82;21084;-41
2021/09/17 09:45:19;;;;;;;14.63;8.25;;;;;;;19.95;58.49;98854.61;1749074;82;20961;-41
2021/09/17 09:47:56;;;;;;;18.67;9.20;;;;;;;19.99;58.04;98850.41;1741199;82;21033;-41
2021/09/17 09:50:29;;;;;;;17.48;9.08;;;;;;;20.01;57.97;98852.11;1749328;82;21029;-41
2021/09/17 09:53:00;;;;;;;14.55;8.95;;;;;;;20.05;57.44;98841.77;1748577;82;21303;-41
2021/09/17 09:55:29;;;;;;;14.93;8.70;;;;;;;20.09;57.39;98845.19;1721310;82;22054;-41
2021/09/17 09:57:56;;;;;;;15.53;9.50;;;;;;;20.12;57.93;98838.05;1719769;82;21077;-41
2021/09/17 10:00:24;;;;;;;17.45;9.13;;;;;;;20.15;57.64;98843.45;1719410;83;21537;-41
2021/09/17 10:02:50;;;;;;;14.55;8.93;;;;;;;20.19;57.74;98839.99;1720655;82;21096;-41
2021/09/17 10:05:22;;;;;;;15.08;8.63;;;;;;;20.24;57.65;98844.96;1719738;82;21523;-41
2021/09/17 10:07:46;;;;;;;17.52;8.45;;;;;;;20.27;57.52;98848.23;1729278;82;21090;-41
2021/09/17 10:10:15;;;;;;;12.47;8.63;;;;;;;20.30;57.38;98843.25;1747879;82;21029;-41
2021/09/17 10:12:42;;;;;;;16.42;8.80;;;;;;;20.30;57.50;98840.50;1730843;81;20921;-41
2021/09/17 10:15:11;;;;;;;17.73;8.75;;;;;;;20.34;57.48;98839.78;1734534;82;21522;-41
2021/09/17 10:17:38;;;;;;;13.18;7.95;;;;;;;20.41;57.63;98840.80;1734365;82;21133;-41
2021/09/17 10:20:08;;;;;;;17.50;8.45;;;;;;;20.51;57.41;98839.72;1749260;81;21629;-41
2021/09/17 10:22:41;;;;;;;14.35;8.43;;;;;;;20.60;57.12;98848.88;1747049;81;21496;-41
2021/09/17 10:25:19;;;;;;;13.70;8.88;;;;;;;20.65;57.15;98846.17;1746735;81;21487;-41
2021/09/17 10:28:06;;;;;;;18.48;8.63;;;;;;;20.70;57.21;98836.77;1748491;81;21029;-41
2021/09/17 10:30:37;;;;;;;21.33;9.05;;;;;;;20.80;56.79;98832.91;1731977;82;22011;-41
2021/09/17 10:33:04;;;;;;;31.37;10.48;;;;;;;20.88;56.80;98825.19;1740418;82;21567;-41
2021/09/17 10:35:44;;;;;;;17.55;9.60;;;;;;;20.98;57.31;98818.56;1689269;82;21555;-41
2021/09/17 10:38:25;;;;;;;14.43;8.93;;;;;;;21.11;56.62;98815.19;1747978;82;20945;-41
2021/09/17 10:41:07;;;;;;;20.90;9.05;;;;;;;21.25;57.29;98815.38;1726678;81;21049;-41
2021/09/17 10:43:40;;;;;;;12.23;8.18;;;;;;;21.36;56.46;98809.48;1727392;82;22111;-41
2021/09/17 10:46:23;;;;;;;13.58;8.58;;;;;;;21.43;55.75;98806.50;1722298;82;21080;-41
2021/09/17 10:48:56;;;;;;;18.40;9.08;;;;;;;21.45;55.22;98806.81;1738541;82;21088;-41
2021/09/17 10:51:38;;;;;;;20.60;8.68;;;;;;;21.46;54.76;98802.84;1725196;81;21575;-41
2021/09/17 10:54:19;;;;;;;15.83;8.30;;;;;;;21.45;55.18;98797.94;1722076;81;21519;-41
2021/09/17 10:57:05;;;;;;;19.15;8.58;;;;;;;21.46;55.46;98789.05;1742144;82;21208;-41
2021/09/17 10:59:42;;;;;;;16.30;8.40;;;;;;;21.47;55.00;98789.22;1719710;82;21032;-41
2021/09/17 11:02:10;;;;;;;16.00;8.35;;;;;;;21.46;54.72;98790.44;1728983;82;21526;-41
2021/09/17 11:04:44;;;;;;;12.45;7.83;;;;;;;21.43;54.88;98790.73;1719973;82;21037;-41
2021/09/17 11:07:27;;;;;;;20.85;9.05;;;;;;;21.43;55.12;98780.30;1719233;82;21558;-41
2021/09/17 11:09:55;;;;;;;13.93;7.83;;;;;;;21.45;55.11;98780.61;1719634;83;21350;-41
2021/09/17 11:12:33;;;;;;;18.12;8.48;;;;;;;21.44;55.64;98777.11;1733248;82;21000;-41
2021/09/17 11:15:14;;;;;;;13.32;8.05;;;;;;;21.44;55.54;98778.48;1734274;82;21541;-41
2021/09/17 11:17:52;;;;;;;11.43;7.95;;;;;;;21.44;55.52;98774.95;1733789;82;21012;-40
2021/09/17 11:20:26;;;;;;;14.20;8.08;;;;;;;21.44;55.71;98770.22;1730916;82;20933;-40
2021/09/17 11:23:03;;;;;;;15.05;8.15;;;;;;;21.45;55.70;98763.46;1734212;82;21212;-40
2021/09/17 11:25:39;;;;;;;15.78;8.43;;;;;;;21.46;55.84;98760.09;1727751;82;21118;-40
2021/09/17 11:28:30;;;;;;;12.18;8.15;;;;;;;21.45;55.60;98764.84;1727631;81;21012;-40
2021/09/17 11:31:17;;;;;;;16.85;7.55;;;;;;;21.48;55.64;98760.43;1740292;82;21562;-40
2021/09/17 11:33:48;;;;;;;12.65;7.47;;;;;;;21.52;55.66;98758.31;1722261;82;21039;-40
2021/09/17 11:36:15;;;;;;;16.27;8.90;;;;;;;21.61;55.53;98752.87;1694949;83;22049;-40
2021/09/17 11:38:42;;;;;;;13.75;8.25;;;;;;;21.76;54.95;98748.39;1715871;82;21041;-40